createdAt,value
2018-05-08T00:00:08.716Z,9.23
2018-05-08T00:02:37.115Z,8.30
2018-05-08T00:05:05.609Z,7.40
2018-05-08T00:07:34.011Z,7.70
2018-05-08T00:10:02.505Z,7.43
2018-05-08T00:12:30.935Z,8.03
2018-05-08T00:14:59.342Z,8.60
2018-05-08T00:17:27.779Z,7.90
2018-05-08T00:19:56.192Z,8.00
2018-05-08T00:22:24.616Z,8.07
2018-05-08T00:24:53.018Z,8.03
2018-05-08T00:27:21.458Z,8.27
2018-05-08T00:29:49.869Z,7.47
2018-05-08T00:32:18.319Z,8.10
2018-05-08T00:34:46.724Z,8.57
2018-05-08T00:37:15.152Z,7.90
2018-05-08T00:39:43.614Z,7.00
2018-05-08T00:42:12.002Z,7.30
2018-05-08T00:44:40.396Z,7.30
2018-05-08T00:47:08.847Z,7.67
2018-05-08T00:49:37.306Z,7.80
2018-05-08T00:52:05.791Z,7.27
2018-05-08T00:54:45.976Z,7.73
2018-05-08T00:57:14.378Z,7.00
2018-05-08T00:59:42.813Z,6.73
2018-05-08T01:02:11.247Z,7.13
2018-05-08T01:04:39.688Z,8.57
2018-05-08T01:07:08.098Z,8.67
2018-05-08T01:09:36.552Z,7.63
2018-05-08T01:12:04.990Z,8.00
2018-05-08T01:14:33.448Z,7.10
2018-05-08T01:17:01.907Z,7.63
2018-05-08T01:19:30.386Z,7.63
2018-05-08T01:21:58.894Z,7.70
2018-05-08T01:24:27.328Z,8.47
2018-05-08T01:26:55.789Z,7.57
2018-05-08T01:29:24.226Z,8.23
2018-05-08T01:31:52.676Z,7.60
2018-05-08T01:34:21.122Z,7.60
2018-05-08T01:36:49.571Z,8.80
2018-05-08T01:39:17.967Z,8.53
2018-05-08T01:41:46.379Z,8.67
2018-05-08T01:44:14.900Z,10.53
2018-05-08T01:46:43.326Z,9.60
2018-05-08T01:49:11.779Z,8.60
2018-05-08T01:51:40.229Z,8.43
2018-05-08T01:54:08.675Z,7.93
2018-05-08T01:56:37.086Z,7.43
2018-05-08T01:59:05.520Z,7.57
2018-05-08T02:01:34.107Z,8.60
2018-05-08T02:04:02.544Z,8.63
2018-05-08T02:06:31.060Z,8.37
2018-05-08T02:08:59.450Z,8.87
2018-05-08T02:11:27.960Z,8.07
2018-05-08T02:13:56.392Z,7.60
2018-05-08T02:16:24.845Z,7.90
2018-05-08T02:18:54.016Z,7.33
2018-05-08T02:21:22.409Z,8.40
2018-05-08T02:23:50.955Z,7.93
2018-05-08T02:26:19.352Z,8.00
2018-05-08T02:28:47.820Z,8.50
2018-05-08T02:31:16.257Z,7.37
2018-05-08T02:33:44.718Z,7.63
2018-05-08T02:36:13.105Z,8.20
2018-05-08T02:38:41.555Z,7.10
2018-05-08T02:41:09.964Z,8.73
2018-05-08T02:43:38.394Z,7.87
2018-05-08T02:46:06.821Z,7.77
2018-05-08T02:48:35.332Z,8.13
2018-05-08T02:51:03.719Z,8.80
2018-05-08T02:53:32.171Z,7.93
2018-05-08T02:56:00.595Z,8.17
2018-05-08T02:58:28.973Z,9.07
2018-05-08T03:00:57.374Z,9.47
2018-05-08T03:03:25.818Z,9.67
2018-05-08T03:05:54.283Z,8.93
2018-05-08T03:08:22.688Z,9.40
2018-05-08T03:10:51.155Z,9.03
2018-05-08T03:13:19.600Z,9.13
2018-05-08T03:15:48.236Z,9.17
2018-05-08T03:18:16.739Z,9.20
2018-05-08T03:20:45.152Z,9.47
2018-05-08T03:23:13.599Z,10.53
2018-05-08T03:25:41.998Z,10.07
2018-05-08T03:28:10.477Z,9.80
2018-05-08T03:30:38.913Z,10.10
2018-05-08T03:33:07.390Z,9.83
2018-05-08T03:35:35.794Z,10.57
2018-05-08T03:38:04.232Z,9.80
2018-05-08T03:40:32.661Z,11.47
2018-05-08T03:43:01.059Z,10.63
2018-05-08T03:45:29.507Z,10.73
2018-05-08T03:47:57.929Z,11.20
2018-05-08T03:50:26.379Z,10.93
2018-05-08T03:52:54.783Z,11.13
2018-05-08T03:55:23.179Z,11.80
2018-05-08T03:57:51.610Z,11.53
2018-05-08T04:00:31.936Z,11.60
2018-05-08T04:03:12.183Z,11.83
2018-05-08T04:05:50.572Z,11.33
2018-05-08T04:08:37.471Z,12.37
2018-05-08T04:11:05.908Z,12.20
2018-05-08T04:13:34.456Z,11.63
2018-05-08T04:16:02.884Z,11.17
2018-05-08T04:18:31.339Z,12.83
2018-05-08T04:20:59.812Z,11.20
2018-05-08T04:23:28.295Z,11.67
2018-05-08T04:25:56.691Z,12.00
2018-05-08T04:28:25.099Z,11.37
2018-05-08T04:30:53.547Z,11.83
2018-05-08T04:33:21.975Z,11.53
2018-05-08T04:35:50.427Z,12.50
2018-05-08T04:38:18.861Z,11.77
2018-05-08T04:40:47.376Z,12.77
2018-05-08T04:43:16.508Z,11.93
2018-05-08T04:45:44.924Z,13.33
2018-05-08T04:48:13.405Z,13.33
2018-05-08T04:50:41.834Z,14.03
2018-05-08T04:53:10.317Z,13.80
2018-05-08T04:55:38.761Z,13.37
2018-05-08T04:58:07.161Z,13.47
2018-05-08T05:00:35.688Z,13.33
2018-05-08T05:03:04.127Z,15.07
2018-05-08T05:05:32.550Z,14.83
2018-05-08T05:08:01.020Z,14.53
2018-05-08T05:10:29.445Z,15.33
2018-05-08T05:12:57.885Z,13.33
2018-05-08T05:15:26.364Z,14.50
2018-05-08T05:17:54.882Z,12.60
2018-05-08T05:20:23.287Z,13.97
2018-05-08T05:22:51.688Z,13.93
2018-05-08T05:25:20.375Z,12.77
2018-05-08T05:27:48.878Z,14.20
2018-05-08T05:30:17.288Z,12.20
2018-05-08T05:32:45.721Z,11.57
2018-05-08T05:35:14.135Z,11.50
2018-05-08T05:37:42.612Z,13.17
2018-05-08T05:40:11.016Z,12.67
2018-05-08T05:42:39.626Z,12.40
2018-05-08T05:45:08.087Z,12.73
2018-05-08T05:47:36.561Z,13.23
2018-05-08T05:50:04.964Z,12.43
2018-05-08T05:52:33.395Z,13.90
2018-05-08T05:55:01.841Z,12.03
2018-05-08T05:57:30.267Z,12.63
2018-05-08T05:59:58.759Z,13.20
2018-05-08T06:02:27.146Z,12.57
2018-05-08T06:04:55.676Z,12.57
2018-05-08T06:07:24.095Z,12.97
2018-05-08T06:09:52.601Z,12.70
2018-05-08T06:12:21.089Z,12.13
2018-05-08T06:14:49.497Z,12.33
2018-05-08T06:17:17.960Z,11.30
2018-05-08T06:19:46.366Z,12.67
2018-05-08T06:22:14.883Z,10.73
2018-05-08T06:24:43.288Z,11.10
2018-05-08T06:27:11.707Z,11.47
2018-05-08T06:29:40.153Z,11.37
2018-05-08T06:32:08.565Z,12.23
2018-05-08T06:34:36.980Z,12.67
2018-05-08T06:37:05.428Z,12.40
2018-05-08T06:39:33.852Z,10.43
2018-05-08T06:42:02.369Z,10.43
2018-05-08T06:44:30.803Z,11.37
2018-05-08T06:46:59.305Z,10.40
2018-05-08T06:49:27.727Z,10.63
2018-05-08T06:51:56.127Z,11.07
2018-05-08T06:54:24.600Z,9.07
2018-05-08T06:56:53.015Z,8.90
2018-05-08T06:59:21.414Z,9.47
2018-05-08T07:01:49.846Z,8.27
2018-05-08T07:04:18.241Z,8.80
2018-05-08T07:06:46.678Z,8.13
2018-05-08T07:09:15.193Z,7.73
2018-05-08T07:11:43.583Z,5.90
2018-05-08T07:14:12.000Z,5.80
2018-05-08T07:16:40.444Z,7.17
2018-05-08T07:19:08.843Z,7.33
2018-05-08T07:21:37.260Z,7.60
2018-05-08T07:24:05.804Z,7.10
2018-05-08T07:26:34.194Z,5.80
2018-05-08T07:29:02.629Z,6.80
2018-05-08T07:31:31.060Z,7.40
2018-05-08T07:33:59.450Z,7.30
2018-05-08T07:36:28.128Z,6.60
2018-05-08T07:38:56.535Z,7.03
2018-05-08T07:41:25.017Z,7.37
2018-05-08T07:43:53.619Z,7.13
2018-05-08T07:46:22.004Z,6.80
2018-05-08T07:48:50.540Z,7.00
2018-05-08T07:51:18.912Z,7.07
2018-05-08T07:53:47.358Z,6.10
2018-05-08T07:56:15.756Z,6.73
2018-05-08T07:58:44.223Z,5.37
2018-05-08T08:01:12.624Z,6.33
2018-05-08T08:03:41.074Z,5.10
2018-05-08T08:06:09.583Z,5.83
2018-05-08T08:08:37.976Z,5.47
2018-05-08T08:11:06.430Z,4.10
2018-05-08T08:13:34.827Z,4.07
2018-05-08T08:16:03.314Z,3.40
2018-05-08T08:18:31.839Z,4.00
2018-05-08T08:21:00.228Z,4.37
2018-05-08T08:23:28.658Z,4.90
2018-05-08T08:25:57.039Z,4.13
2018-05-08T08:28:25.458Z,4.17
2018-05-08T08:30:53.873Z,4.67
2018-05-08T08:33:22.291Z,4.53
2018-05-08T08:35:50.696Z,3.67
2018-05-08T08:38:19.140Z,4.00
2018-05-08T08:40:47.614Z,4.23
2018-05-08T08:43:16.043Z,4.87
2018-05-08T08:45:44.484Z,4.53
2018-05-08T08:48:12.892Z,4.93
2018-05-08T08:50:41.282Z,4.20
2018-05-08T08:53:09.707Z,4.47
2018-05-08T08:55:38.092Z,4.37
2018-05-08T08:58:06.482Z,4.57
2018-05-08T09:00:34.940Z,5.10
2018-05-08T09:03:03.356Z,4.67
2018-05-08T09:05:31.803Z,4.33
2018-05-08T09:08:00.226Z,4.40
2018-05-08T09:10:28.643Z,4.23
2018-05-08T09:12:57.047Z,4.37
2018-05-08T09:15:25.483Z,4.30
2018-05-08T09:17:53.988Z,3.77
2018-05-08T09:20:22.391Z,4.70
2018-05-08T09:22:50.872Z,4.93
2018-05-08T09:25:19.300Z,4.30
2018-05-08T09:27:47.762Z,4.30
2018-05-08T09:30:16.185Z,4.13
2018-05-08T09:32:44.618Z,4.17
2018-05-08T09:35:13.112Z,5.53
2018-05-08T09:37:41.584Z,3.90
2018-05-08T09:40:10.023Z,4.67
2018-05-08T09:42:38.403Z,3.70
2018-05-08T09:45:06.799Z,4.20
2018-05-08T09:47:35.241Z,3.73
2018-05-08T09:50:03.711Z,4.00
2018-05-08T09:52:32.131Z,4.20
2018-05-08T09:55:00.516Z,4.13
2018-05-08T09:57:28.946Z,3.97
2018-05-08T09:59:57.359Z,3.80
2018-05-08T10:02:25.760Z,3.93
2018-05-08T10:04:54.334Z,3.83
2018-05-08T10:07:22.727Z,4.10
2018-05-08T10:09:51.264Z,3.67
2018-05-08T10:12:19.687Z,3.90
2018-05-08T10:14:48.096Z,4.53
2018-05-08T10:17:16.706Z,4.27
2018-05-08T10:19:45.120Z,4.93
2018-05-08T10:22:13.548Z,4.00
2018-05-08T10:24:41.923Z,3.37
2018-05-08T10:27:10.357Z,3.33
2018-05-08T10:29:38.783Z,2.97
2018-05-08T10:32:07.262Z,3.70
2018-05-08T10:34:35.667Z,3.53
2018-05-08T10:37:04.071Z,3.30
2018-05-08T10:39:32.503Z,3.33
2018-05-08T10:42:01.012Z,3.43
2018-05-08T10:44:29.483Z,3.10
2018-05-08T10:46:57.909Z,3.40
2018-05-08T10:49:26.293Z,3.37
2018-05-08T10:51:54.763Z,3.07
2018-05-08T10:54:23.191Z,2.80
2018-05-08T10:56:51.584Z,3.40
2018-05-08T10:59:20.070Z,3.20
2018-05-08T11:01:48.537Z,3.47
2018-05-08T11:04:16.941Z,2.93
2018-05-08T11:06:45.346Z,3.07
2018-05-08T11:09:13.767Z,3.03
2018-05-08T11:11:42.160Z,3.05
2018-05-08T11:14:10.603Z,3.87
2018-05-08T11:16:39.124Z,3.90
2018-05-08T11:19:07.526Z,3.60
2018-05-08T11:21:35.946Z,2.97
2018-05-08T11:24:04.445Z,4.37
2018-05-08T11:26:32.978Z,3.60
2018-05-08T11:29:01.336Z,2.80
2018-05-08T11:31:29.765Z,3.10
2018-05-08T11:33:58.354Z,3.10
2018-05-08T11:36:26.744Z,3.97
2018-05-08T11:38:55.148Z,3.00
2018-05-08T11:41:23.604Z,2.55
2018-05-08T11:43:51.992Z,2.85
2018-05-08T11:46:20.420Z,2.63
2018-05-08T11:48:48.821Z,2.50
2018-05-08T11:51:17.217Z,2.40
2018-05-08T11:53:45.723Z,2.70
2018-05-08T11:56:14.102Z,2.70
2018-05-08T11:58:42.604Z,3.03
2018-05-08T12:01:11.013Z,3.20
2018-05-08T12:03:39.527Z,3.85
2018-05-08T12:06:07.972Z,3.03
2018-05-08T12:08:36.366Z,3.10
2018-05-08T12:11:04.792Z,2.58
2018-05-08T12:13:33.243Z,2.95
2018-05-08T12:16:01.674Z,2.75
2018-05-08T12:18:30.099Z,2.70
2018-05-08T12:20:58.543Z,2.83
2018-05-08T12:23:27.012Z,2.87
2018-05-08T12:25:55.420Z,2.60
2018-05-08T12:28:23.839Z,2.85
2018-05-08T12:30:52.249Z,2.83
2018-05-08T12:33:20.646Z,2.42
2018-05-08T12:35:49.067Z,2.42
2018-05-08T12:38:17.463Z,2.90
2018-05-08T12:40:45.894Z,4.10
2018-05-08T12:43:14.288Z,3.00
2018-05-08T12:45:42.735Z,2.58
2018-05-08T12:48:11.128Z,2.67
2018-05-08T12:50:39.527Z,2.87
2018-05-08T12:53:07.959Z,3.28
2018-05-08T12:55:36.370Z,3.50
2018-05-08T12:58:04.905Z,2.92
2018-05-08T13:00:33.292Z,2.62
2018-05-08T13:03:01.737Z,3.00
2018-05-08T13:05:30.355Z,13.60
2018-05-08T13:07:58.797Z,3.15
2018-05-08T13:10:27.269Z,3.03
2018-05-08T13:12:55.724Z,3.20
2018-05-08T13:15:24.171Z,3.12
2018-05-08T13:17:52.551Z,3.12
2018-05-08T13:20:20.984Z,3.58
2018-05-08T13:22:49.377Z,3.12
2018-05-08T13:25:17.834Z,2.87
2018-05-08T13:27:46.243Z,2.60
2018-05-08T13:30:14.639Z,2.67
2018-05-08T13:32:43.122Z,2.90
2018-05-08T13:35:11.672Z,3.08
2018-05-08T13:37:40.682Z,2.72
2018-05-08T13:40:09.167Z,3.60
2018-05-08T13:42:37.913Z,2.70
2018-05-08T13:45:06.856Z,2.95
2018-05-08T13:47:35.300Z,2.92
2018-05-08T13:50:03.803Z,3.80
2018-05-08T13:52:32.316Z,3.83
2018-05-08T13:55:00.931Z,3.53
2018-05-08T13:57:31.323Z,4.60
2018-05-08T14:00:00.018Z,3.85
2018-05-08T14:02:28.455Z,5.12
2018-05-08T14:04:56.923Z,4.20
2018-05-08T14:07:25.322Z,5.65
2018-05-08T14:09:54.453Z,5.03
2018-05-08T14:12:23.004Z,4.95
2018-05-08T14:14:51.405Z,3.72
2018-05-08T14:17:19.983Z,4.10
2018-05-08T14:19:48.403Z,4.93
2018-05-08T14:22:17.036Z,4.78
2018-05-08T14:24:45.601Z,4.12
2018-05-08T14:27:14.043Z,3.42
2018-05-08T14:29:42.428Z,4.12
2018-05-08T14:32:10.860Z,4.57
2018-05-08T14:34:39.263Z,5.95
2018-05-08T14:37:07.737Z,4.18
2018-05-08T14:39:36.187Z,4.57
2018-05-08T14:42:04.652Z,6.18
2018-05-08T14:44:33.167Z,3.90
2018-05-08T14:47:01.698Z,5.10
2018-05-08T14:49:30.132Z,5.20
2018-05-08T14:51:58.535Z,3.12
2018-05-08T14:54:26.970Z,4.05
2018-05-08T14:56:55.395Z,4.40
2018-05-08T14:59:23.855Z,3.95
2018-05-08T15:01:52.250Z,3.83
2018-05-08T15:04:20.809Z,4.30
2018-05-08T15:06:49.280Z,4.90
2018-05-08T15:09:17.698Z,4.37
2018-05-08T15:11:46.114Z,4.50
2018-05-08T15:14:14.536Z,4.12
2018-05-08T15:16:44.031Z,4.93
2018-05-08T15:19:12.461Z,4.87
2018-05-08T15:21:40.958Z,4.70
2018-05-08T15:24:09.370Z,3.33
2018-05-08T15:26:37.791Z,3.05
2018-05-08T15:29:06.205Z,3.83
2018-05-08T15:31:34.646Z,2.97
2018-05-08T15:34:03.195Z,3.60
2018-05-08T15:36:31.663Z,3.30
2018-05-08T15:39:00.055Z,3.20
2018-05-08T15:41:28.512Z,3.60
2018-05-08T15:43:56.917Z,3.40
2018-05-08T15:46:25.366Z,4.12
2018-05-08T15:48:53.898Z,3.83
2018-05-08T15:51:22.295Z,3.27
2018-05-08T15:53:50.727Z,3.13
2018-05-08T15:56:19.111Z,3.10
2018-05-08T15:58:48.631Z,3.00
2018-05-08T16:01:17.032Z,5.00
2018-05-08T16:03:45.515Z,3.53
2018-05-08T16:06:14.011Z,3.53
2018-05-08T16:08:42.466Z,4.30
2018-05-08T16:11:10.856Z,4.37
2018-05-08T16:13:39.272Z,3.37
2018-05-08T16:16:07.676Z,3.05
2018-05-08T16:18:36.319Z,3.85
2018-05-08T16:21:04.722Z,3.30
2018-05-08T16:23:33.176Z,4.62
2018-05-08T16:26:01.565Z,3.30
2018-05-08T16:28:29.995Z,2.80
2018-05-08T16:30:58.408Z,3.58
2018-05-08T16:33:26.826Z,3.50
2018-05-08T16:35:55.208Z,2.65
2018-05-08T16:38:23.659Z,3.67
2018-05-08T16:40:52.076Z,3.03
2018-05-08T16:43:21.447Z,3.72
2018-05-08T16:45:49.870Z,3.03
2018-05-08T16:48:18.519Z,3.05
2018-05-08T16:50:46.945Z,3.78
2018-05-08T16:53:15.437Z,3.20
2018-05-08T16:55:43.890Z,3.80
2018-05-08T16:58:12.375Z,3.00
2018-05-08T17:00:40.946Z,3.20
2018-05-08T17:03:09.402Z,3.35
2018-05-08T17:05:37.852Z,3.72
2018-05-08T17:08:06.302Z,5.75
2018-05-08T17:10:34.834Z,3.58
2018-05-08T17:13:03.257Z,3.60
2018-05-08T17:15:31.716Z,3.25
2018-05-08T17:18:00.142Z,3.93
2018-05-08T17:20:28.548Z,5.20
2018-05-08T17:22:56.992Z,3.50
2018-05-08T17:25:25.440Z,3.33
2018-05-08T17:27:53.851Z,3.33
2018-05-08T17:30:22.271Z,3.50
2018-05-08T17:32:50.819Z,4.30
2018-05-08T17:35:19.206Z,3.50
2018-05-08T17:37:47.607Z,3.57
2018-05-08T17:40:16.035Z,3.13
2018-05-08T17:42:44.410Z,2.60
2018-05-08T17:45:12.862Z,3.80
2018-05-08T17:47:41.332Z,3.53
2018-05-08T17:50:09.770Z,3.30
2018-05-08T17:52:38.228Z,2.97
2018-05-08T17:55:06.800Z,3.90
2018-05-08T17:57:35.288Z,3.33
2018-05-08T18:00:03.742Z,3.00
2018-05-08T18:02:32.216Z,2.73
2018-05-08T18:05:00.704Z,3.33
2018-05-08T18:07:29.111Z,3.97
2018-05-08T18:09:57.555Z,3.33
2018-05-08T18:12:25.970Z,3.57
2018-05-08T18:14:54.386Z,3.80
2018-05-08T18:17:23.052Z,3.30
2018-05-08T18:19:51.453Z,4.73
2018-05-08T18:22:19.899Z,4.67
2018-05-08T18:24:48.335Z,3.63
2018-05-08T18:27:16.759Z,3.83
2018-05-08T18:29:45.176Z,3.93
2018-05-08T18:32:13.567Z,5.00
2018-05-08T18:34:42.020Z,3.37
2018-05-08T18:37:10.440Z,3.60
2018-05-08T18:39:38.893Z,3.27
2018-05-08T18:42:07.315Z,3.20
2018-05-08T18:44:35.735Z,4.83
2018-05-08T18:47:04.197Z,3.83
2018-05-08T18:49:32.760Z,3.20
2018-05-08T18:52:01.071Z,3.47
2018-05-08T18:54:29.512Z,4.00
2018-05-08T18:56:58.029Z,3.63
2018-05-08T18:59:26.474Z,3.90
2018-05-08T19:01:54.884Z,4.13
2018-05-08T19:04:23.325Z,3.77
2018-05-08T19:06:51.815Z,4.47
2018-05-08T19:09:20.458Z,3.13
2018-05-08T19:11:48.828Z,7.03
2018-05-08T19:14:17.284Z,5.03
2018-05-08T19:16:45.781Z,5.43
2018-05-08T19:19:20.168Z,5.27
2018-05-08T19:21:49.647Z,3.43
2018-05-08T19:24:24.274Z,4.37
2018-05-08T19:26:53.744Z,5.47
2018-05-08T19:29:28.319Z,5.13
2018-05-08T19:31:57.885Z,4.47
2018-05-08T19:34:32.539Z,4.73
2018-05-08T19:37:07.266Z,4.03
2018-05-08T19:39:36.030Z,4.10
2018-05-08T19:42:04.551Z,4.20
2018-05-08T19:44:33.240Z,3.53
2018-05-08T19:47:01.626Z,4.17
2018-05-08T19:49:30.047Z,4.43
2018-05-08T19:51:58.992Z,3.50
2018-05-08T19:54:27.371Z,3.63
2018-05-08T19:56:55.770Z,3.33
2018-05-08T19:59:24.438Z,3.30
2018-05-08T20:01:52.826Z,3.60
2018-05-08T20:04:21.234Z,3.60
2018-05-08T20:06:50.001Z,3.60
2018-05-08T20:09:18.398Z,3.77
2018-05-08T20:11:46.829Z,3.40
2018-05-08T20:14:15.662Z,3.13
2018-05-08T20:16:44.101Z,3.37
2018-05-08T20:19:12.523Z,3.20
2018-05-08T20:21:41.184Z,3.40
2018-05-08T20:24:09.760Z,4.13
2018-05-08T20:26:38.175Z,3.70
2018-05-08T20:29:06.837Z,3.90
2018-05-08T20:31:35.236Z,3.50
2018-05-08T20:34:03.718Z,2.87
2018-05-08T20:36:32.513Z,3.17
2018-05-08T20:39:00.882Z,3.37
2018-05-08T20:41:29.326Z,3.67
2018-05-08T20:43:58.043Z,3.43
2018-05-08T20:46:26.441Z,4.23
2018-05-08T20:48:54.852Z,3.40
2018-05-08T20:51:23.597Z,3.63
2018-05-08T20:53:51.980Z,3.30
2018-05-08T20:56:20.354Z,3.27
2018-05-08T20:58:48.937Z,2.93
2018-05-08T21:01:17.389Z,3.10
2018-05-08T21:03:45.801Z,3.13
2018-05-08T21:06:14.568Z,3.63
2018-05-08T21:08:42.990Z,2.67
2018-05-08T21:11:11.417Z,2.73
2018-05-08T21:13:39.832Z,3.03
2018-05-08T21:16:08.231Z,2.80
2018-05-08T21:18:36.620Z,2.60
2018-05-08T21:21:05.474Z,2.60
2018-05-08T21:23:33.883Z,2.50
2018-05-08T21:26:02.268Z,3.13
2018-05-08T21:28:36.717Z,3.30
2018-05-08T21:31:10.873Z,2.20
2018-05-08T21:33:39.710Z,3.20
2018-05-08T21:36:08.180Z,2.63
2018-05-08T21:38:37.446Z,2.80
2018-05-08T21:41:06.226Z,2.63
2018-05-08T21:43:34.653Z,2.50
2018-05-08T21:46:03.028Z,2.60
2018-05-08T21:48:31.486Z,2.50
2018-05-08T21:50:59.873Z,3.10
2018-05-08T21:53:28.292Z,3.50
2018-05-08T21:55:57.000Z,3.10
2018-05-08T21:58:25.411Z,3.20
2018-05-08T22:00:53.777Z,3.73
2018-05-08T22:03:22.563Z,2.97
2018-05-08T22:05:50.951Z,2.80
2018-05-08T22:08:19.369Z,2.83
2018-05-08T22:10:47.868Z,3.37
2018-05-08T22:13:16.281Z,3.23
2018-05-08T22:15:44.677Z,2.87
2018-05-08T22:18:13.348Z,3.43
2018-05-08T22:20:41.729Z,3.10
2018-05-08T22:23:10.275Z,2.83
2018-05-08T22:25:39.003Z,2.90
2018-05-08T22:28:07.416Z,2.87
2018-05-08T22:30:35.818Z,2.60
2018-05-08T22:33:04.654Z,3.00
2018-05-08T22:35:33.057Z,2.60
2018-05-08T22:38:01.451Z,3.00
2018-05-08T22:40:29.881Z,3.17
2018-05-08T22:42:58.228Z,2.73
2018-05-08T22:45:26.618Z,3.40
2018-05-08T22:47:55.260Z,3.33
2018-05-08T22:50:23.850Z,2.83
2018-05-08T22:52:52.503Z,3.40
2018-05-08T22:55:21.011Z,2.60
2018-05-08T22:57:49.404Z,3.10
2018-05-08T23:00:17.811Z,2.70
2018-05-08T23:02:46.134Z,2.60
2018-05-08T23:05:14.505Z,2.80
2018-05-08T23:07:42.986Z,3.10
2018-05-08T23:10:11.783Z,2.93
2018-05-08T23:12:40.196Z,3.07
2018-05-08T23:15:08.575Z,2.80
2018-05-08T23:17:37.102Z,3.23
2018-05-08T23:20:05.515Z,3.37
2018-05-08T23:22:33.915Z,2.70
2018-05-08T23:25:02.580Z,2.83
2018-05-08T23:27:30.962Z,3.23
2018-05-08T23:29:59.352Z,3.40
2018-05-08T23:32:28.223Z,2.80
2018-05-08T23:34:56.615Z,3.40
2018-05-08T23:37:24.999Z,3.03
2018-05-08T23:39:53.783Z,3.20
2018-05-08T23:42:22.183Z,3.07
2018-05-08T23:44:50.568Z,3.07
2018-05-08T23:47:19.312Z,3.17
2018-05-08T23:49:47.711Z,3.70
2018-05-08T23:52:16.106Z,3.47
2018-05-08T23:54:44.752Z,3.20
2018-05-08T23:57:13.163Z,3.60
2018-05-08T23:59:41.570Z,3.30
